sensor_id;sensor_type;location;lat;lon;timestamp;temperature;humidity
7900;DHT22;3995;50.856;4.404;2022-10-13T00:00:33;17.60;56.20
7900;DHT22;3995;50.856;4.404;2022-10-13T00:03:01;17.60;56.20
7900;DHT22;3995;50.856;4.404;2022-10-13T00:05:29;17.60;56.20
7900;DHT22;3995;50.856;4.404;2022-10-13T00:07:57;17.60;56.90
7900;DHT22;3995;50.856;4.404;2022-10-13T00:10:25;17.60;56.30
7900;DHT22;3995;50.856;4.404;2022-10-13T00:12:52;17.60;56.90
7900;DHT22;3995;50.856;4.404;2022-10-13T00:15:19;17.60;56.40
7900;DHT22;3995;50.856;4.404;2022-10-13T00:17:46;17.60;56.40
7900;DHT22;3995;50.856;4.404;2022-10-13T00:20:14;17.60;56.50
7900;DHT22;3995;50.856;4.404;2022-10-13T00:22:41;17.60;56.50
7900;DHT22;3995;50.856;4.404;2022-10-13T00:25:10;17.60;56.50
7900;DHT22;3995;50.856;4.404;2022-10-13T00:27:37;17.60;56.50
7900;DHT22;3995;50.856;4.404;2022-10-13T00:30:05;17.60;56.60
7900;DHT22;3995;50.856;4.404;2022-10-13T00:32:32;17.60;56.60
7900;DHT22;3995;50.856;4.404;2022-10-13T00:35:00;17.60;56.60
7900;DHT22;3995;50.856;4.404;2022-10-13T00:37:26;17.60;56.60
7900;DHT22;3995;50.856;4.404;2022-10-13T00:39:54;17.60;56.60
7900;DHT22;3995;50.856;4.404;2022-10-13T00:42:22;17.60;56.60
7900;DHT22;3995;50.856;4.404;2022-10-13T00:45:03;17.60;56.60
7900;DHT22;3995;50.856;4.404;2022-10-13T00:47:34;17.60;56.50
7900;DHT22;3995;50.856;4.404;2022-10-13T00:50:03;17.60;56.60
7900;DHT22;3995;50.856;4.404;2022-10-13T00:52:30;17.60;56.50
7900;DHT22;3995;50.856;4.404;2022-10-13T00:55:00;17.60;56.50
7900;DHT22;3995;50.856;4.404;2022-10-13T00:57:29;17.60;56.50
7900;DHT22;3995;50.856;4.404;2022-10-13T00:59:57;17.60;56.50
7900;DHT22;3995;50.856;4.404;2022-10-13T01:02:27;17.60;56.50
7900;DHT22;3995;50.856;4.404;2022-10-13T01:04:57;17.70;56.60
7900;DHT22;3995;50.856;4.404;2022-10-13T01:07:26;17.70;56.60
7900;DHT22;3995;50.856;4.404;2022-10-13T01:09:54;17.70;56.60
7900;DHT22;3995;50.856;4.404;2022-10-13T01:12:34;17.70;56.40
7900;DHT22;3995;50.856;4.404;2022-10-13T01:15:10;17.70;56.40
7900;DHT22;3995;50.856;4.404;2022-10-13T01:17:47;17.70;56.50
7900;DHT22;3995;50.856;4.404;2022-10-13T01:20:49;17.70;56.40
7900;DHT22;3995;50.856;4.404;2022-10-13T01:23:39;17.80;56.30
7900;DHT22;3995;50.856;4.404;2022-10-13T01:26:49;17.70;56.40
7900;DHT22;3995;50.856;4.404;2022-10-13T01:29:45;17.70;56.30
7900;DHT22;3995;50.856;4.404;2022-10-13T01:32:18;17.70;56.40
7900;DHT22;3995;50.856;4.404;2022-10-13T01:34:52;17.70;56.40
7900;DHT22;3995;50.856;4.404;2022-10-13T01:37:26;17.70;56.40
7900;DHT22;3995;50.856;4.404;2022-10-13T01:39:59;17.70;56.30
7900;DHT22;3995;50.856;4.404;2022-10-13T01:42:34;17.70;56.30
7900;DHT22;3995;50.856;4.404;2022-10-13T01:45:03;17.70;56.20
7900;DHT22;3995;50.856;4.404;2022-10-13T01:47:32;17.70;56.30
7900;DHT22;3995;50.856;4.404;2022-10-13T01:50:02;17.70;56.20
7900;DHT22;3995;50.856;4.404;2022-10-13T01:52:33;17.70;56.20
7900;DHT22;3995;50.856;4.404;2022-10-13T01:55:05;17.70;56.20
7900;DHT22;3995;50.856;4.404;2022-10-13T01:57:35;17.70;56.20
7900;DHT22;3995;50.856;4.404;2022-10-13T02:00:08;17.70;56.20
7900;DHT22;3995;50.856;4.404;2022-10-13T02:02:40;17.70;56.30
7900;DHT22;3995;50.856;4.404;2022-10-13T02:05:16;17.70;56.30
7900;DHT22;3995;50.856;4.404;2022-10-13T02:07:53;17.70;56.30
7900;DHT22;3995;50.856;4.404;2022-10-13T02:10:26;17.70;56.30
7900;DHT22;3995;50.856;4.404;2022-10-13T02:12:56;17.70;56.30
7900;DHT22;3995;50.856;4.404;2022-10-13T02:15:29;17.70;56.30
7900;DHT22;3995;50.856;4.404;2022-10-13T02:17:59;17.70;56.30
7900;DHT22;3995;50.856;4.404;2022-10-13T02:20:27;17.70;56.30
7900;DHT22;3995;50.856;4.404;2022-10-13T02:22:58;17.70;56.30
7900;DHT22;3995;50.856;4.404;2022-10-13T02:25:26;17.70;56.30
7900;DHT22;3995;50.856;4.404;2022-10-13T02:27:54;17.70;56.30
7900;DHT22;3995;50.856;4.404;2022-10-13T02:30:27;17.70;56.30
7900;DHT22;3995;50.856;4.404;2022-10-13T02:32:55;17.70;56.20
7900;DHT22;3995;50.856;4.404;2022-10-13T02:35:22;17.70;56.20
7900;DHT22;3995;50.856;4.404;2022-10-13T02:37:50;17.70;56.20
7900;DHT22;3995;50.856;4.404;2022-10-13T02:40:17;17.70;56.20
7900;DHT22;3995;50.856;4.404;2022-10-13T02:42:45;17.70;56.20
7900;DHT22;3995;50.856;4.404;2022-10-13T02:45:12;17.70;56.20
7900;DHT22;3995;50.856;4.404;2022-10-13T02:47:41;17.70;56.20
7900;DHT22;3995;50.856;4.404;2022-10-13T02:50:08;17.70;56.10
7900;DHT22;3995;50.856;4.404;2022-10-13T02:52:36;17.70;56.10
7900;DHT22;3995;50.856;4.404;2022-10-13T02:55:04;17.70;56.20
7900;DHT22;3995;50.856;4.404;2022-10-13T02:57:31;17.70;56.20
7900;DHT22;3995;50.856;4.404;2022-10-13T02:59:58;17.70;56.20
7900;DHT22;3995;50.856;4.404;2022-10-13T03:02:26;17.70;56.20
7900;DHT22;3995;50.856;4.404;2022-10-13T03:04:55;17.70;56.20
7900;DHT22;3995;50.856;4.404;2022-10-13T03:07:22;17.70;56.20
7900;DHT22;3995;50.856;4.404;2022-10-13T03:09:49;17.70;56.30
7900;DHT22;3995;50.856;4.404;2022-10-13T03:12:16;17.70;56.20
7900;DHT22;3995;50.856;4.404;2022-10-13T03:14:43;17.70;56.20
7900;DHT22;3995;50.856;4.404;2022-10-13T03:17:11;17.70;56.20
7900;DHT22;3995;50.856;4.404;2022-10-13T03:19:38;17.70;56.30
7900;DHT22;3995;50.856;4.404;2022-10-13T03:22:06;17.70;56.30
7900;DHT22;3995;50.856;4.404;2022-10-13T03:24:33;17.70;56.20
7900;DHT22;3995;50.856;4.404;2022-10-13T03:27:00;17.70;56.20
7900;DHT22;3995;50.856;4.404;2022-10-13T03:29:28;17.70;56.30
7900;DHT22;3995;50.856;4.404;2022-10-13T03:31:55;17.70;56.20
7900;DHT22;3995;50.856;4.404;2022-10-13T03:34:22;17.70;56.20
7900;DHT22;3995;50.856;4.404;2022-10-13T03:36:49;17.70;56.20
7900;DHT22;3995;50.856;4.404;2022-10-13T03:39:18;17.70;56.20
7900;DHT22;3995;50.856;4.404;2022-10-13T03:41:46;17.70;56.20
7900;DHT22;3995;50.856;4.404;2022-10-13T03:44:14;17.70;56.80
7900;DHT22;3995;50.856;4.404;2022-10-13T03:46:41;17.70;56.20
7900;DHT22;3995;50.856;4.404;2022-10-13T03:49:10;17.60;56.20
7900;DHT22;3995;50.856;4.404;2022-10-13T03:51:37;17.60;56.30
7900;DHT22;3995;50.856;4.404;2022-10-13T03:54:05;17.60;56.40
7900;DHT22;3995;50.856;4.404;2022-10-13T03:56:33;17.60;56.40
7900;DHT22;3995;50.856;4.404;2022-10-13T03:59:01;17.60;56.50
7900;DHT22;3995;50.856;4.404;2022-10-13T04:01:30;17.60;56.60
7900;DHT22;3995;50.856;4.404;2022-10-13T04:03:58;17.60;56.50
7900;DHT22;3995;50.856;4.404;2022-10-13T04:06:27;17.60;56.50
7900;DHT22;3995;50.856;4.404;2022-10-13T04:08:54;17.60;56.50
7900;DHT22;3995;50.856;4.404;2022-10-13T04:11:21;17.60;56.50
7900;DHT22;3995;50.856;4.404;2022-10-13T04:13:50;17.60;56.50
7900;DHT22;3995;50.856;4.404;2022-10-13T04:16:19;17.60;56.40
7900;DHT22;3995;50.856;4.404;2022-10-13T04:18:51;17.60;56.50
7900;DHT22;3995;50.856;4.404;2022-10-13T04:21:19;17.60;56.40
7900;DHT22;3995;50.856;4.404;2022-10-13T04:23:47;17.60;56.40
7900;DHT22;3995;50.856;4.404;2022-10-13T04:26:15;17.60;56.40
7900;DHT22;3995;50.856;4.404;2022-10-13T04:28:43;17.60;56.40
7900;DHT22;3995;50.856;4.404;2022-10-13T04:31:12;17.60;56.90
7900;DHT22;3995;50.856;4.404;2022-10-13T04:33:39;17.60;56.30
7900;DHT22;3995;50.856;4.404;2022-10-13T04:36:09;17.60;56.40
7900;DHT22;3995;50.856;4.404;2022-10-13T04:38:37;17.60;56.40
7900;DHT22;3995;50.856;4.404;2022-10-13T04:41:05;17.60;56.50
7900;DHT22;3995;50.856;4.404;2022-10-13T04:43:33;17.60;56.40
7900;DHT22;3995;50.856;4.404;2022-10-13T04:46:01;17.60;56.50
7900;DHT22;3995;50.856;4.404;2022-10-13T04:48:29;17.60;56.40
7900;DHT22;3995;50.856;4.404;2022-10-13T04:50:58;17.60;56.40
7900;DHT22;3995;50.856;4.404;2022-10-13T04:53:26;17.60;56.40
7900;DHT22;3995;50.856;4.404;2022-10-13T04:55:54;17.60;56.40
7900;DHT22;3995;50.856;4.404;2022-10-13T04:58:21;17.50;56.40
7900;DHT22;3995;50.856;4.404;2022-10-13T05:00:48;17.50;56.40
7900;DHT22;3995;50.856;4.404;2022-10-13T05:03:15;17.50;56.50
7900;DHT22;3995;50.856;4.404;2022-10-13T05:05:44;17.60;56.60
7900;DHT22;3995;50.856;4.404;2022-10-13T05:08:12;17.60;56.60
7900;DHT22;3995;50.856;4.404;2022-10-13T05:10:39;17.50;56.50
7900;DHT22;3995;50.856;4.404;2022-10-13T05:13:07;17.60;56.70
7900;DHT22;3995;50.856;4.404;2022-10-13T05:15:34;17.60;56.60
7900;DHT22;3995;50.856;4.404;2022-10-13T05:18:04;17.60;56.70
7900;DHT22;3995;50.856;4.404;2022-10-13T05:20:33;17.50;56.60
7900;DHT22;3995;50.856;4.404;2022-10-13T05:23:02;17.60;56.60
7900;DHT22;3995;50.856;4.404;2022-10-13T05:25:30;17.60;56.70
7900;DHT22;3995;50.856;4.404;2022-10-13T05:27:57;17.60;56.60
7900;DHT22;3995;50.856;4.404;2022-10-13T05:30:24;17.60;56.60
7900;DHT22;3995;50.856;4.404;2022-10-13T05:32:51;17.60;56.60
7900;DHT22;3995;50.856;4.404;2022-10-13T05:35:20;17.60;56.60
7900;DHT22;3995;50.856;4.404;2022-10-13T05:37:48;17.60;56.60
7900;DHT22;3995;50.856;4.404;2022-10-13T05:40:16;17.60;56.60
7900;DHT22;3995;50.856;4.404;2022-10-13T05:42:45;17.60;56.60
7900;DHT22;3995;50.856;4.404;2022-10-13T05:45:13;17.50;56.60
7900;DHT22;3995;50.856;4.404;2022-10-13T05:47:40;17.60;56.60
7900;DHT22;3995;50.856;4.404;2022-10-13T05:50:08;17.60;56.70
7900;DHT22;3995;50.856;4.404;2022-10-13T05:52:35;17.60;56.70
7900;DHT22;3995;50.856;4.404;2022-10-13T05:55:04;17.60;56.60
7900;DHT22;3995;50.856;4.404;2022-10-13T05:57:38;17.60;56.70
7900;DHT22;3995;50.856;4.404;2022-10-13T06:00:08;17.60;56.70
7900;DHT22;3995;50.856;4.404;2022-10-13T06:02:39;17.60;56.70
7900;DHT22;3995;50.856;4.404;2022-10-13T06:05:12;17.60;56.70
7900;DHT22;3995;50.856;4.404;2022-10-13T06:07:39;17.60;56.60
7900;DHT22;3995;50.856;4.404;2022-10-13T06:10:09;17.60;56.60
7900;DHT22;3995;50.856;4.404;2022-10-13T06:12:38;17.60;56.60
7900;DHT22;3995;50.856;4.404;2022-10-13T06:15:06;17.60;56.60
7900;DHT22;3995;50.856;4.404;2022-10-13T06:17:35;17.50;56.50
7900;DHT22;3995;50.856;4.404;2022-10-13T06:20:03;17.60;56.60
7900;DHT22;3995;50.856;4.404;2022-10-13T06:22:31;17.50;56.60
7900;DHT22;3995;50.856;4.404;2022-10-13T06:24:58;17.50;56.60
7900;DHT22;3995;50.856;4.404;2022-10-13T06:27:26;17.50;56.60
7900;DHT22;3995;50.856;4.404;2022-10-13T06:29:54;17.50;56.60
7900;DHT22;3995;50.856;4.404;2022-10-13T06:32:22;17.50;56.60
7900;DHT22;3995;50.856;4.404;2022-10-13T06:35:04;17.50;56.60
7900;DHT22;3995;50.856;4.404;2022-10-13T06:37:31;17.50;56.70
7900;DHT22;3995;50.856;4.404;2022-10-13T06:39:58;17.50;56.70
7900;DHT22;3995;50.856;4.404;2022-10-13T06:42:25;17.50;56.70
7900;DHT22;3995;50.856;4.404;2022-10-13T06:44:56;17.50;56.70
7900;DHT22;3995;50.856;4.404;2022-10-13T06:47:23;17.50;56.70
7900;DHT22;3995;50.856;4.404;2022-10-13T06:49:51;17.50;56.70
7900;DHT22;3995;50.856;4.404;2022-10-13T06:52:18;17.50;56.80
7900;DHT22;3995;50.856;4.404;2022-10-13T06:54:45;17.50;56.80
7900;DHT22;3995;50.856;4.404;2022-10-13T06:57:13;17.50;56.80
7900;DHT22;3995;50.856;4.404;2022-10-13T06:59:40;17.50;57.30
7900;DHT22;3995;50.856;4.404;2022-10-13T07:02:22;17.50;56.70
7900;DHT22;3995;50.856;4.404;2022-10-13T07:04:49;17.50;56.70
7900;DHT22;3995;50.856;4.404;2022-10-13T07:07:17;17.50;56.70
7900;DHT22;3995;50.856;4.404;2022-10-13T07:09:44;17.50;56.70
7900;DHT22;3995;50.856;4.404;2022-10-13T07:12:12;17.50;56.70
7900;DHT22;3995;50.856;4.404;2022-10-13T07:14:39;17.50;56.70
7900;DHT22;3995;50.856;4.404;2022-10-13T07:17:06;17.50;56.60
7900;DHT22;3995;50.856;4.404;2022-10-13T07:19:35;17.50;56.60
7900;DHT22;3995;50.856;4.404;2022-10-13T07:22:02;17.50;56.60
7900;DHT22;3995;50.856;4.404;2022-10-13T07:24:30;17.50;56.60
7900;DHT22;3995;50.856;4.404;2022-10-13T07:26:57;17.50;56.80
7900;DHT22;3995;50.856;4.404;2022-10-13T07:29:24;17.50;57.60
7900;DHT22;3995;50.856;4.404;2022-10-13T07:31:54;17.50;57.10
7900;DHT22;3995;50.856;4.404;2022-10-13T07:34:21;17.60;57.20
7900;DHT22;3995;50.856;4.404;2022-10-13T07:36:50;17.50;57.30
7900;DHT22;3995;50.856;4.404;2022-10-13T07:39:17;17.60;57.50
7900;DHT22;3995;50.856;4.404;2022-10-13T07:41:45;17.60;57.50
7900;DHT22;3995;50.856;4.404;2022-10-13T07:44:12;17.60;57.50
7900;DHT22;3995;50.856;4.404;2022-10-13T07:46:39;17.60;57.60
7900;DHT22;3995;50.856;4.404;2022-10-13T07:49:06;17.60;57.60
7900;DHT22;3995;50.856;4.404;2022-10-13T07:51:34;17.60;57.80
7900;DHT22;3995;50.856;4.404;2022-10-13T07:54:06;17.60;57.90
7900;DHT22;3995;50.856;4.404;2022-10-13T07:56:33;17.60;57.90
7900;DHT22;3995;50.856;4.404;2022-10-13T07:59:01;17.50;57.80
7900;DHT22;3995;50.856;4.404;2022-10-13T08:01:28;17.60;58.00
7900;DHT22;3995;50.856;4.404;2022-10-13T08:03:56;17.60;58.00
7900;DHT22;3995;50.856;4.404;2022-10-13T08:06:23;17.60;57.90
7900;DHT22;3995;50.856;4.404;2022-10-13T08:08:52;17.60;58.00
7900;DHT22;3995;50.856;4.404;2022-10-13T08:11:20;17.60;58.00
7900;DHT22;3995;50.856;4.404;2022-10-13T08:13:48;17.60;58.00
7900;DHT22;3995;50.856;4.404;2022-10-13T08:16:16;17.60;58.00
7900;DHT22;3995;50.856;4.404;2022-10-13T08:18:45;17.60;57.90
7900;DHT22;3995;50.856;4.404;2022-10-13T08:21:14;17.50;57.80
7900;DHT22;3995;50.856;4.404;2022-10-13T08:23:42;17.50;57.90
7900;DHT22;3995;50.856;4.404;2022-10-13T08:26:14;17.60;58.10
7900;DHT22;3995;50.856;4.404;2022-10-13T08:28:43;17.60;58.00
7900;DHT22;3995;50.856;4.404;2022-10-13T08:31:11;17.60;58.10
7900;DHT22;3995;50.856;4.404;2022-10-13T08:33:38;17.60;58.10
7900;DHT22;3995;50.856;4.404;2022-10-13T08:36:06;17.60;58.20
7900;DHT22;3995;50.856;4.404;2022-10-13T08:38:34;17.60;58.10
7900;DHT22;3995;50.856;4.404;2022-10-13T08:41:01;17.60;58.00
7900;DHT22;3995;50.856;4.404;2022-10-13T08:43:30;17.60;58.10
7900;DHT22;3995;50.856;4.404;2022-10-13T08:45:59;17.60;58.20
7900;DHT22;3995;50.856;4.404;2022-10-13T08:48:29;17.60;58.10
7900;DHT22;3995;50.856;4.404;2022-10-13T08:51:00;17.70;58.10
7900;DHT22;3995;50.856;4.404;2022-10-13T08:53:29;17.70;58.20
7900;DHT22;3995;50.856;4.404;2022-10-13T08:56:01;17.70;58.20
7900;DHT22;3995;50.856;4.404;2022-10-13T08:58:32;17.70;58.10
7900;DHT22;3995;50.856;4.404;2022-10-13T09:01:11;17.70;58.10
7900;DHT22;3995;50.856;4.404;2022-10-13T09:03:50;17.70;57.90
7900;DHT22;3995;50.856;4.404;2022-10-13T09:06:21;17.70;57.90
7900;DHT22;3995;50.856;4.404;2022-10-13T09:08:55;17.70;58.10
7900;DHT22;3995;50.856;4.404;2022-10-13T09:11:25;17.70;58.00
7900;DHT22;3995;50.856;4.404;2022-10-13T09:13:54;17.70;58.00
7900;DHT22;3995;50.856;4.404;2022-10-13T09:16:28;17.70;58.00
7900;DHT22;3995;50.856;4.404;2022-10-13T09:19:16;17.70;58.00
7900;DHT22;3995;50.856;4.404;2022-10-13T09:21:45;17.80;57.90
7900;DHT22;3995;50.856;4.404;2022-10-13T09:24:14;17.70;58.50
7900;DHT22;3995;50.856;4.404;2022-10-13T09:26:43;17.70;57.80
7900;DHT22;3995;50.856;4.404;2022-10-13T09:29:17;17.70;57.90
7900;DHT22;3995;50.856;4.404;2022-10-13T09:31:46;17.70;57.90
7900;DHT22;3995;50.856;4.404;2022-10-13T09:34:22;17.70;58.00
7900;DHT22;3995;50.856;4.404;2022-10-13T09:36:57;17.80;58.10
7900;DHT22;3995;50.856;4.404;2022-10-13T09:39:25;17.70;58.00
7900;DHT22;3995;50.856;4.404;2022-10-13T09:42:16;17.70;58.10
7900;DHT22;3995;50.856;4.404;2022-10-13T09:44:44;17.80;58.40
7900;DHT22;3995;50.856;4.404;2022-10-13T09:47:19;17.70;58.60
7900;DHT22;3995;50.856;4.404;2022-10-13T09:49:58;17.80;58.80
7900;DHT22;3995;50.856;4.404;2022-10-13T09:52:25;17.90;58.90
7900;DHT22;3995;50.856;4.404;2022-10-13T09:54:56;17.80;59.10
7900;DHT22;3995;50.856;4.404;2022-10-13T09:57:33;17.80;59.20
7900;DHT22;3995;50.856;4.404;2022-10-13T10:00:08;17.90;59.40
7900;DHT22;3995;50.856;4.404;2022-10-13T10:02:47;17.90;59.50
7900;DHT22;3995;50.856;4.404;2022-10-13T10:05:22;17.90;59.60
7900;DHT22;3995;50.856;4.404;2022-10-13T10:07:51;17.90;59.90
7900;DHT22;3995;50.856;4.404;2022-10-13T10:10:27;17.90;60.00
7900;DHT22;3995;50.856;4.404;2022-10-13T10:12:56;18.00;60.10
7900;DHT22;3995;50.856;4.404;2022-10-13T10:15:29;17.90;60.20
7900;DHT22;3995;50.856;4.404;2022-10-13T10:18:04;18.00;60.20
7900;DHT22;3995;50.856;4.404;2022-10-13T10:20:41;18.00;60.20
7900;DHT22;3995;50.856;4.404;2022-10-13T10:23:17;18.00;60.20
7900;DHT22;3995;50.856;4.404;2022-10-13T10:25:48;18.00;60.20
7900;DHT22;3995;50.856;4.404;2022-10-13T10:28:37;18.00;60.20
7900;DHT22;3995;50.856;4.404;2022-10-13T10:31:17;18.00;60.20
7900;DHT22;3995;50.856;4.404;2022-10-13T10:33:56;18.00;60.40
7900;DHT22;3995;50.856;4.404;2022-10-13T10:36:31;18.00;60.60
7900;DHT22;3995;50.856;4.404;2022-10-13T10:39:05;18.00;61.00
7900;DHT22;3995;50.856;4.404;2022-10-13T10:41:42;18.00;61.30
7900;DHT22;3995;50.856;4.404;2022-10-13T10:44:13;18.00;61.60
7900;DHT22;3995;50.856;4.404;2022-10-13T10:46:45;18.00;61.90
7900;DHT22;3995;50.856;4.404;2022-10-13T10:49:17;18.00;62.20
7900;DHT22;3995;50.856;4.404;2022-10-13T10:51:46;18.00;62.60
7900;DHT22;3995;50.856;4.404;2022-10-13T10:54:23;18.00;62.80
7900;DHT22;3995;50.856;4.404;2022-10-13T10:56:54;18.00;63.10
7900;DHT22;3995;50.856;4.404;2022-10-13T10:59:26;18.00;63.30
7900;DHT22;3995;50.856;4.404;2022-10-13T11:02:11;18.00;63.40
7900;DHT22;3995;50.856;4.404;2022-10-13T11:04:44;17.90;63.50
7900;DHT22;3995;50.856;4.404;2022-10-13T11:07:13;17.90;63.70
7900;DHT22;3995;50.856;4.404;2022-10-13T11:10:02;17.90;63.90
7900;DHT22;3995;50.856;4.404;2022-10-13T11:12:47;17.90;64.10
7900;DHT22;3995;50.856;4.404;2022-10-13T11:15:41;17.90;64.10
7900;DHT22;3995;50.856;4.404;2022-10-13T11:21:14;17.90;64.30
7900;DHT22;3995;50.856;4.404;2022-10-13T11:23:46;17.80;64.50
7900;DHT22;3995;50.856;4.404;2022-10-13T11:26:31;17.80;64.60
7900;DHT22;3995;50.856;4.404;2022-10-13T11:29:15;17.90;64.90
7900;DHT22;3995;50.856;4.404;2022-10-13T11:31:50;17.80;64.80
7900;DHT22;3995;50.856;4.404;2022-10-13T11:34:27;17.80;64.80
7900;DHT22;3995;50.856;4.404;2022-10-13T11:36:59;17.80;64.80
7900;DHT22;3995;50.856;4.404;2022-10-13T11:45:56;17.80;65.00
7900;DHT22;3995;50.856;4.404;2022-10-13T11:51:49;17.80;65.10
7900;DHT22;3995;50.856;4.404;2022-10-13T11:54:29;17.90;65.30
7900;DHT22;3995;50.856;4.404;2022-10-13T11:56:58;17.80;65.10
7900;DHT22;3995;50.856;4.404;2022-10-13T11:59:27;17.90;65.20
7900;DHT22;3995;50.856;4.404;2022-10-13T12:01:57;17.90;65.10
7900;DHT22;3995;50.856;4.404;2022-10-13T12:04:27;17.90;65.10
7900;DHT22;3995;50.856;4.404;2022-10-13T12:06:57;17.90;65.00
7900;DHT22;3995;50.856;4.404;2022-10-13T12:09:29;17.90;65.00
7900;DHT22;3995;50.856;4.404;2022-10-13T12:12:01;17.90;64.90
7900;DHT22;3995;50.856;4.404;2022-10-13T12:14:31;17.90;64.90
7900;DHT22;3995;50.856;4.404;2022-10-13T12:17:01;17.90;64.80
7900;DHT22;3995;50.856;4.404;2022-10-13T12:19:29;17.90;64.70
7900;DHT22;3995;50.856;4.404;2022-10-13T12:21:59;17.90;64.70
7900;DHT22;3995;50.856;4.404;2022-10-13T12:24:29;17.90;64.60
7900;DHT22;3995;50.856;4.404;2022-10-13T12:26:57;17.90;64.60
7900;DHT22;3995;50.856;4.404;2022-10-13T12:29:26;17.90;64.60
7900;DHT22;3995;50.856;4.404;2022-10-13T12:31:54;17.90;64.60
7900;DHT22;3995;50.856;4.404;2022-10-13T12:34:24;17.90;64.60
7900;DHT22;3995;50.856;4.404;2022-10-13T12:36:57;17.90;64.60
7900;DHT22;3995;50.856;4.404;2022-10-13T12:39:27;17.90;64.70
7900;DHT22;3995;50.856;4.404;2022-10-13T12:42:00;18.00;64.60
7900;DHT22;3995;50.856;4.404;2022-10-13T12:44:29;17.90;64.60
7900;DHT22;3995;50.856;4.404;2022-10-13T12:46:58;17.90;64.60
7900;DHT22;3995;50.856;4.404;2022-10-13T12:49:27;18.00;64.70
7900;DHT22;3995;50.856;4.404;2022-10-13T12:51:57;18.00;64.70
7900;DHT22;3995;50.856;4.404;2022-10-13T12:54:32;18.00;64.60
7900;DHT22;3995;50.856;4.404;2022-10-13T12:57:04;18.00;65.40
7900;DHT22;3995;50.856;4.404;2022-10-13T12:59:32;18.00;64.80
7900;DHT22;3995;50.856;4.404;2022-10-13T13:02:01;17.90;64.60
7900;DHT22;3995;50.856;4.404;2022-10-13T13:04:40;17.90;64.50
7900;DHT22;3995;50.856;4.404;2022-10-13T13:07:29;18.00;64.50
7900;DHT22;3995;50.856;4.404;2022-10-13T13:10:14;18.00;64.50
7900;DHT22;3995;50.856;4.404;2022-10-13T13:12:42;17.90;64.50
7900;DHT22;3995;50.856;4.404;2022-10-13T13:15:30;17.90;64.80
7900;DHT22;3995;50.856;4.404;2022-10-13T13:18:22;18.00;64.80
7900;DHT22;3995;50.856;4.404;2022-10-13T13:20:50;18.00;64.90
7900;DHT22;3995;50.856;4.404;2022-10-13T13:23:18;17.90;65.10
7900;DHT22;3995;50.856;4.404;2022-10-13T13:26:02;17.90;65.80
7900;DHT22;3995;50.856;4.404;2022-10-13T13:28:31;17.90;65.30
7900;DHT22;3995;50.856;4.404;2022-10-13T13:30:59;17.90;65.40
7900;DHT22;3995;50.856;4.404;2022-10-13T13:33:26;18.00;65.60
7900;DHT22;3995;50.856;4.404;2022-10-13T13:35:53;18.00;65.70
7900;DHT22;3995;50.856;4.404;2022-10-13T13:38:20;18.00;65.60
7900;DHT22;3995;50.856;4.404;2022-10-13T13:40:47;18.00;65.60
7900;DHT22;3995;50.856;4.404;2022-10-13T13:43:16;18.00;65.70
7900;DHT22;3995;50.856;4.404;2022-10-13T13:45:44;18.00;65.80
7900;DHT22;3995;50.856;4.404;2022-10-13T13:48:11;18.00;65.90
7900;DHT22;3995;50.856;4.404;2022-10-13T13:50:39;17.90;66.50
7900;DHT22;3995;50.856;4.404;2022-10-13T13:53:06;18.00;66.00
7900;DHT22;3995;50.856;4.404;2022-10-13T13:55:33;18.00;66.10
7900;DHT22;3995;50.856;4.404;2022-10-13T13:58:01;18.00;66.10
7900;DHT22;3995;50.856;4.404;2022-10-13T14:00:30;18.00;66.10
7900;DHT22;3995;50.856;4.404;2022-10-13T14:02:57;18.00;66.10
7900;DHT22;3995;50.856;4.404;2022-10-13T14:05:24;18.00;66.10
7900;DHT22;3995;50.856;4.404;2022-10-13T14:07:55;18.00;66.20
7900;DHT22;3995;50.856;4.404;2022-10-13T14:10:22;18.00;66.30
7900;DHT22;3995;50.856;4.404;2022-10-13T14:12:50;18.00;66.20
7900;DHT22;3995;50.856;4.404;2022-10-13T14:15:18;18.00;66.10
7900;DHT22;3995;50.856;4.404;2022-10-13T14:17:46;18.00;66.00
7900;DHT22;3995;50.856;4.404;2022-10-13T14:20:14;18.00;66.00
7900;DHT22;3995;50.856;4.404;2022-10-13T14:22:41;18.00;65.90
7900;DHT22;3995;50.856;4.404;2022-10-13T14:25:09;18.00;65.90
7900;DHT22;3995;50.856;4.404;2022-10-13T14:27:37;18.00;65.80
7900;DHT22;3995;50.856;4.404;2022-10-13T14:30:06;18.00;65.80
7900;DHT22;3995;50.856;4.404;2022-10-13T14:32:35;18.00;65.70
7900;DHT22;3995;50.856;4.404;2022-10-13T14:35:04;18.00;65.60
7900;DHT22;3995;50.856;4.404;2022-10-13T14:37:31;18.00;65.60
7900;DHT22;3995;50.856;4.404;2022-10-13T14:39:59;18.00;65.60
7900;DHT22;3995;50.856;4.404;2022-10-13T14:42:26;18.00;65.50
7900;DHT22;3995;50.856;4.404;2022-10-13T14:44:54;17.90;66.00
7900;DHT22;3995;50.856;4.404;2022-10-13T14:47:21;18.00;65.30
7900;DHT22;3995;50.856;4.404;2022-10-13T14:49:48;18.00;65.20
7900;DHT22;3995;50.856;4.404;2022-10-13T14:52:19;18.00;65.30
7900;DHT22;3995;50.856;4.404;2022-10-13T14:54:47;18.00;65.20
7900;DHT22;3995;50.856;4.404;2022-10-13T14:57:14;18.00;65.20
7900;DHT22;3995;50.856;4.404;2022-10-13T14:59:42;18.00;65.10
7900;DHT22;3995;50.856;4.404;2022-10-13T15:02:10;18.00;65.00
7900;DHT22;3995;50.856;4.404;2022-10-13T15:04:40;18.00;65.10
7900;DHT22;3995;50.856;4.404;2022-10-13T15:07:07;18.00;64.90
7900;DHT22;3995;50.856;4.404;2022-10-13T15:09:39;18.00;64.90
7900;DHT22;3995;50.856;4.404;2022-10-13T15:12:06;18.00;64.90
7900;DHT22;3995;50.856;4.404;2022-10-13T15:14:33;18.00;64.80
7900;DHT22;3995;50.856;4.404;2022-10-13T15:17:00;17.90;64.50
7900;DHT22;3995;50.856;4.404;2022-10-13T15:19:28;17.90;64.40
7900;DHT22;3995;50.856;4.404;2022-10-13T15:21:55;18.00;64.50
7900;DHT22;3995;50.856;4.404;2022-10-13T15:24:22;18.00;64.50
7900;DHT22;3995;50.856;4.404;2022-10-13T15:26:51;18.00;64.40
7900;DHT22;3995;50.856;4.404;2022-10-13T15:29:18;18.00;64.30
7900;DHT22;3995;50.856;4.404;2022-10-13T15:31:45;18.00;64.30
7900;DHT22;3995;50.856;4.404;2022-10-13T15:34:12;18.00;64.20
7900;DHT22;3995;50.856;4.404;2022-10-13T15:36:39;18.00;64.30
7900;DHT22;3995;50.856;4.404;2022-10-13T15:39:08;18.00;64.20
7900;DHT22;3995;50.856;4.404;2022-10-13T15:41:37;18.00;64.20
7900;DHT22;3995;50.856;4.404;2022-10-13T15:44:06;18.00;64.20
7900;DHT22;3995;50.856;4.404;2022-10-13T15:46:33;18.00;64.10
7900;DHT22;3995;50.856;4.404;2022-10-13T15:49:01;18.00;64.00
7900;DHT22;3995;50.856;4.404;2022-10-13T15:51:28;18.00;64.00
7900;DHT22;3995;50.856;4.404;2022-10-13T15:53:58;18.00;64.70
7900;DHT22;3995;50.856;4.404;2022-10-13T15:56:25;18.00;63.90
7900;DHT22;3995;50.856;4.404;2022-10-13T15:58:53;18.00;64.00
7900;DHT22;3995;50.856;4.404;2022-10-13T16:01:21;18.00;63.80
7900;DHT22;3995;50.856;4.404;2022-10-13T16:03:52;18.00;63.80
7900;DHT22;3995;50.856;4.404;2022-10-13T16:06:19;18.00;63.90
7900;DHT22;3995;50.856;4.404;2022-10-13T16:08:47;18.00;63.80
7900;DHT22;3995;50.856;4.404;2022-10-13T16:11:16;18.00;63.80
7900;DHT22;3995;50.856;4.404;2022-10-13T16:13:45;18.00;63.80
7900;DHT22;3995;50.856;4.404;2022-10-13T16:16:16;17.90;63.90
7900;DHT22;3995;50.856;4.404;2022-10-13T16:18:46;18.00;64.00
7900;DHT22;3995;50.856;4.404;2022-10-13T16:21:16;18.00;63.80
7900;DHT22;3995;50.856;4.404;2022-10-13T16:23:43;17.90;64.30
7900;DHT22;3995;50.856;4.404;2022-10-13T16:26:11;17.90;63.70
7900;DHT22;3995;50.856;4.404;2022-10-13T16:28:38;17.90;63.70
7900;DHT22;3995;50.856;4.404;2022-10-13T16:31:07;17.90;63.70
7900;DHT22;3995;50.856;4.404;2022-10-13T16:33:37;18.00;64.40